メインページ
METAR-TAF:

METAR-TAF

空港 :

八戸航空基地

八戸, 日本

緯度: 40-33N, 経度: 141-28E, 海抜: 46m

現時点の気象観測

当レポートは7時間2分前の05:02(UTC)に作成
北西の風 16kt、最大27ktの突風を伴う
気温 22°C
湿度 29%
気圧 1015 hPa
視程10km以上
高度3000ftの雲はほとんどない
高度10000ftの雲は散在している

METAR: RJSH 200502Z 31016G27KT 9999 FEW030 SCT100 22/03 Q1015 RMK 1CU030 4AC100 A3000

時間: 21:04 (12:04 UTC)


TAF: 見つかりません

4,000以上の空港の気象観測と天気予報(METAR報とTAF報)

利用可能な観測所は地図上に黄色い丸と赤い丸で示す。

丸の上にカーソルを重ねると観測所名を参照できる。

次にクリックすると気象観測と天気予報を参照できる。

マップの切り替え:黒色「×」印の緑ボタンをクリックして拡大、「-」印の緑ボタンをクリックして縮小、緑色の三角印をクリックして隣りの地図に切り替え


METAR-TAF: